sensor_id;sensor_type;location;lat;lon;timestamp;pressure;altitude;pressure_sealevel;temperature
82774;BMP280;72508;45.118;20.728;2024-02-23T00:09:35;99761.69;;;13.20
82774;BMP280;72508;45.118;20.728;2024-02-23T00:19:37;99751.63;;;13.17
82774;BMP280;72508;45.118;20.728;2024-02-23T00:29:39;99745.56;;;13.16
82774;BMP280;72508;45.118;20.728;2024-02-23T00:39:42;99725.22;;;13.07
82774;BMP280;72508;45.118;20.728;2024-02-23T00:49:43;99745.28;;;13.13
82774;BMP280;72508;45.118;20.728;2024-02-23T00:59:45;99739.53;;;13.16
82774;BMP280;72508;45.118;20.728;2024-02-23T01:09:47;99728.94;;;13.11
82774;BMP280;72508;45.118;20.728;2024-02-23T01:19:48;99721.84;;;13.11
82774;BMP280;72508;45.118;20.728;2024-02-23T01:29:50;99730.31;;;12.96
82774;BMP280;72508;45.118;20.728;2024-02-23T01:39:52;99715.22;;;12.87
82774;BMP280;72508;45.118;20.728;2024-02-23T01:49:54;99710.34;;;12.95
82774;BMP280;72508;45.118;20.728;2024-02-23T01:59:58;99704.09;;;12.80
82774;BMP280;72508;45.118;20.728;2024-02-23T02:10:04;99696.06;;;12.91
82774;BMP280;72508;45.118;20.728;2024-02-23T02:20:08;99699.63;;;12.80
82774;BMP280;72508;45.118;20.728;2024-02-23T02:30:13;99699.63;;;12.80
82774;BMP280;72508;45.118;20.728;2024-02-23T02:40:14;99695.63;;;12.78
82774;BMP280;72508;45.118;20.728;2024-02-23T02:50:16;99668.88;;;12.81
82774;BMP280;72508;45.118;20.728;2024-02-23T03:00:18;99695.78;;;12.88
82774;BMP280;72508;45.118;20.728;2024-02-23T03:10:19;99681.06;;;12.70
82774;BMP280;72508;45.118;20.728;2024-02-23T03:20:21;99687.91;;;12.71
82774;BMP280;72508;45.118;20.728;2024-02-23T03:30:23;99688.19;;;12.69
82774;BMP280;72508;45.118;20.728;2024-02-23T03:40:24;99669.53;;;12.71
82774;BMP280;72508;45.118;20.728;2024-02-23T03:50:26;99671.44;;;12.76
82774;BMP280;72508;45.118;20.728;2024-02-23T04:00:27;99677.00;;;12.79
82774;BMP280;72508;45.118;20.728;2024-02-23T04:10:29;99684.34;;;12.77
82774;BMP280;72508;45.118;20.728;2024-02-23T04:20:31;99691.16;;;12.78
82774;BMP280;72508;45.118;20.728;2024-02-23T04:30:34;99677.47;;;12.76
82774;BMP280;72508;45.118;20.728;2024-02-23T04:40:35;99665.38;;;12.75
82774;BMP280;72508;45.118;20.728;2024-02-23T04:50:37;99663.03;;;12.73
82774;BMP280;72508;45.118;20.728;2024-02-23T05:00:39;99664.03;;;12.72
82774;BMP280;72508;45.118;20.728;2024-02-23T05:10:41;99661.06;;;12.69
82774;BMP280;72508;45.118;20.728;2024-02-23T05:20:42;99664.56;;;12.74
82774;BMP280;72508;45.118;20.728;2024-02-23T05:30:44;99669.53;;;12.71
82774;BMP280;72508;45.118;20.728;2024-02-23T05:40:49;99684.34;;;12.77
82774;BMP280;72508;45.118;20.728;2024-02-23T05:50:51;99700.72;;;12.84
82774;BMP280;72508;45.118;20.728;2024-02-23T06:00:53;99706.31;;;12.71
82774;BMP280;72508;45.118;20.728;2024-02-23T06:10:55;99706.31;;;12.71
82774;BMP280;72508;45.118;20.728;2024-02-23T06:21:00;99709.53;;;12.73
82774;BMP280;72508;45.118;20.728;2024-02-23T06:31:03;99713.63;;;12.69
82774;BMP280;72508;45.118;20.728;2024-02-23T06:41:08;99719.06;;;12.79
82774;BMP280;72508;45.118;20.728;2024-02-23T06:51:12;99713.47;;;12.76
82774;BMP280;72508;45.118;20.728;2024-02-23T07:01:22;99703.28;;;12.79
82774;BMP280;72508;45.118;20.728;2024-02-23T07:11:33;99719.59;;;12.81
82774;BMP280;72508;45.118;20.728;2024-02-23T07:21:35;99719.25;;;12.94
82774;BMP280;72508;45.118;20.728;2024-02-23T07:31:39;99732.56;;;13.05
82774;BMP280;72508;45.118;20.728;2024-02-23T07:41:44;99741.06;;;12.95
82774;BMP280;72508;45.118;20.728;2024-02-23T07:51:48;99734.94;;;12.89
82774;BMP280;72508;45.118;20.728;2024-02-23T08:01:51;99733.00;;;13.02
82774;BMP280;72508;45.118;20.728;2024-02-23T08:11:57;99745.72;;;13.27
82774;BMP280;72508;45.118;20.728;2024-02-23T08:22:00;99745.03;;;13.36
82774;BMP280;72508;45.118;20.728;2024-02-23T08:32:02;99726.66;;;13.42
82774;BMP280;72508;45.118;20.728;2024-02-23T08:42:19;99733.09;;;13.73
82774;BMP280;72508;45.118;20.728;2024-02-23T08:52:21;99725.38;;;13.93
82774;BMP280;72508;45.118;20.728;2024-02-23T09:02:24;99739.44;;;14.04
82774;BMP280;72508;45.118;20.728;2024-02-23T09:12:27;99719.84;;;14.22
82774;BMP280;72508;45.118;20.728;2024-02-23T09:22:28;99715.81;;;14.89
82774;BMP280;72508;45.118;20.728;2024-02-23T09:32:50;99716.50;;;15.37
82774;BMP280;72508;45.118;20.728;2024-02-23T09:42:56;99735.28;;;15.51
82774;BMP280;72508;45.118;20.728;2024-02-23T09:53:36;99724.75;;;15.71
82774;BMP280;72508;45.118;20.728;2024-02-23T10:03:42;99698.09;;;15.68
82774;BMP280;72508;45.118;20.728;2024-02-23T10:13:44;99714.47;;;16.00
82774;BMP280;72508;45.118;20.728;2024-02-23T10:23:48;99710.78;;;16.17
82774;BMP280;72508;45.118;20.728;2024-02-23T10:33:57;99680.84;;;16.42
82774;BMP280;72508;45.118;20.728;2024-02-23T10:44:03;99688.53;;;16.43
82774;BMP280;72508;45.118;20.728;2024-02-23T11:04:31;99674.78;;;16.31
82774;BMP280;72508;45.118;20.728;2024-02-23T11:14:38;99663.47;;;16.20
82774;BMP280;72508;45.118;20.728;2024-02-23T11:24:50;99664.03;;;16.17
82774;BMP280;72508;45.118;20.728;2024-02-23T11:35:05;99654.50;;;16.16
82774;BMP280;72508;45.118;20.728;2024-02-23T11:45:07;99649.97;;;16.32
82774;BMP280;72508;45.118;20.728;2024-02-23T11:55:09;99641.53;;;16.30
82774;BMP280;72508;45.118;20.728;2024-02-23T12:05:12;99623.78;;;16.46
82774;BMP280;72508;45.118;20.728;2024-02-23T12:15:16;99607.78;;;16.77
82774;BMP280;72508;45.118;20.728;2024-02-23T12:25:17;99615.53;;;17.47
82774;BMP280;72508;45.118;20.728;2024-02-23T12:35:19;99586.88;;;17.83
82774;BMP280;72508;45.118;20.728;2024-02-23T12:45:21;99603.09;;;18.00
82774;BMP280;72508;45.118;20.728;2024-02-23T12:55:23;99608.97;;;17.97
82774;BMP280;72508;45.118;20.728;2024-02-23T13:05:25;99600.81;;;17.94
82774;BMP280;72508;45.118;20.728;2024-02-23T13:15:27;99580.50;;;18.08
82774;BMP280;72508;45.118;20.728;2024-02-23T13:25:32;99591.03;;;18.13
82774;BMP280;72508;45.118;20.728;2024-02-23T13:35:34;99573.56;;;18.55
82774;BMP280;72508;45.118;20.728;2024-02-23T13:45:49;99573.38;;;18.27
82774;BMP280;72508;45.118;20.728;2024-02-23T13:55:54;99567.66;;;18.15
82774;BMP280;72508;45.118;20.728;2024-02-23T14:05:55;99570.19;;;18.06
82774;BMP280;72508;45.118;20.728;2024-02-23T14:15:57;99552.84;;;18.19
82774;BMP280;72508;45.118;20.728;2024-02-23T14:25:59;99563.53;;;18.52
82774;BMP280;72508;45.118;20.728;2024-02-23T14:36:00;99561.56;;;18.39
82774;BMP280;72508;45.118;20.728;2024-02-23T14:46:02;99551.66;;;18.25
82774;BMP280;72508;45.118;20.728;2024-02-23T14:56:04;99559.19;;;18.18
82774;BMP280;72508;45.118;20.728;2024-02-23T15:06:06;99550.56;;;18.07
82774;BMP280;72508;45.118;20.728;2024-02-23T15:16:09;99550.75;;;17.92
82774;BMP280;72508;45.118;20.728;2024-02-23T15:26:14;99554.28;;;17.82
82774;BMP280;72508;45.118;20.728;2024-02-23T15:36:15;99548.88;;;17.69
82774;BMP280;72508;45.118;20.728;2024-02-23T15:46:17;99549.25;;;17.57
82774;BMP280;72508;45.118;20.728;2024-02-23T15:56:19;99544.56;;;17.49
82774;BMP280;72508;45.118;20.728;2024-02-23T16:06:21;99547.81;;;17.40
82774;BMP280;72508;45.118;20.728;2024-02-23T16:16:23;99567.44;;;17.39
82774;BMP280;72508;45.118;20.728;2024-02-23T16:26:25;99583.38;;;17.29
82774;BMP280;72508;45.118;20.728;2024-02-23T16:36:27;99573.41;;;17.16
82774;BMP280;72508;45.118;20.728;2024-02-23T16:46:29;99579.84;;;17.05
82774;BMP280;72508;45.118;20.728;2024-02-23T16:56:31;99580.97;;;16.99
82774;BMP280;72508;45.118;20.728;2024-02-23T17:06:32;99588.94;;;16.88
82774;BMP280;72508;45.118;20.728;2024-02-23T17:16:35;99593.72;;;16.81
82774;BMP280;72508;45.118;20.728;2024-02-23T17:26:36;99586.91;;;16.75
82774;BMP280;72508;45.118;20.728;2024-02-23T17:36:38;99594.81;;;16.75
82774;BMP280;72508;45.118;20.728;2024-02-23T17:46:44;99584.88;;;16.62
82774;BMP280;72508;45.118;20.728;2024-02-23T17:56:49;99588.78;;;16.69
82774;BMP280;72508;45.118;20.728;2024-02-23T18:06:51;99574.78;;;16.69
82774;BMP280;72508;45.118;20.728;2024-02-23T18:16:53;99544.69;;;16.60
82774;BMP280;72508;45.118;20.728;2024-02-23T18:26:55;99554.75;;;16.52
82774;BMP280;72508;45.118;20.728;2024-02-23T18:36:58;99545.81;;;16.43
82774;BMP280;72508;45.118;20.728;2024-02-23T18:47:00;99533.22;;;16.30
82774;BMP280;72508;45.118;20.728;2024-02-23T18:57:01;99530.03;;;16.28
82774;BMP280;72508;45.118;20.728;2024-02-23T19:07:03;99524.25;;;16.16
82774;BMP280;72508;45.118;20.728;2024-02-23T19:17:05;99513.22;;;15.98
82774;BMP280;72508;45.118;20.728;2024-02-23T19:27:07;99504.50;;;16.03
82774;BMP280;72508;45.118;20.728;2024-02-23T19:37:10;99508.47;;;16.05
82774;BMP280;72508;45.118;20.728;2024-02-23T19:47:12;99505.84;;;16.00
82774;BMP280;72508;45.118;20.728;2024-02-23T19:57:14;99499.47;;;16.06
82774;BMP280;72508;45.118;20.728;2024-02-23T20:07:18;99507.38;;;16.12
82774;BMP280;72508;45.118;20.728;2024-02-23T20:17:20;99483.88;;;16.05
82774;BMP280;72508;45.118;20.728;2024-02-23T20:27:22;99470.41;;;16.12
82774;BMP280;72508;45.118;20.728;2024-02-23T20:37:24;99477.03;;;16.09
82774;BMP280;72508;45.118;20.728;2024-02-23T20:47:26;99471.97;;;16.13
82774;BMP280;72508;45.118;20.728;2024-02-23T20:57:27;99462.50;;;16.06
82774;BMP280;72508;45.118;20.728;2024-02-23T21:07:29;99461.19;;;16.09
82774;BMP280;72508;45.118;20.728;2024-02-23T21:17:32;99446.09;;;16.10
82774;BMP280;72508;45.118;20.728;2024-02-23T21:27:34;99470.97;;;16.03
82774;BMP280;72508;45.118;20.728;2024-02-23T21:37:36;99454.31;;;16.08
82774;BMP280;72508;45.118;20.728;2024-02-23T21:47:38;99465.69;;;16.03
82774;BMP280;72508;45.118;20.728;2024-02-23T21:57:39;99449.31;;;16.01
82774;BMP280;72508;45.118;20.728;2024-02-23T22:07:41;99460.41;;;15.98
82774;BMP280;72508;45.118;20.728;2024-02-23T22:17:43;99432.47;;;15.82
82774;BMP280;72508;45.118;20.728;2024-02-23T22:27:45;99455.44;;;15.92
82774;BMP280;72508;45.118;20.728;2024-02-23T22:37:46;99482.06;;;15.95
82774;BMP280;72508;45.118;20.728;2024-02-23T22:47:48;99481.53;;;15.98
82774;BMP280;72508;45.118;20.728;2024-02-23T22:57:50;99455.72;;;15.85
82774;BMP280;72508;45.118;20.728;2024-02-23T23:07:51;99482.06;;;15.95
82774;BMP280;72508;45.118;20.728;2024-02-23T23:17:53;99488.97;;;15.96
82774;BMP280;72508;45.118;20.728;2024-02-23T23:27:55;99499.53;;;15.96
82774;BMP280;72508;45.118;20.728;2024-02-23T23:37:57;99494.75;;;15.93
82774;BMP280;72508;45.118;20.728;2024-02-23T23:47:58;99486.84;;;15.93
82774;BMP280;72508;45.118;20.728;2024-02-23T23:58:00;99487.91;;;15.92
